sensor_id;sensor_type;location;lat;lon;timestamp;P1;durP1;ratioP1;P2;durP2;ratioP2
85295;SDS011;75700;43.958;2.882;2024-01-25T00:00:00;21.48;;;8.52;;
85295;SDS011;75700;43.958;2.882;2024-01-25T00:02:26;46.22;;;21.40;;
85295;SDS011;75700;43.958;2.882;2024-01-25T00:04:52;34.22;;;14.30;;
85295;SDS011;75700;43.958;2.882;2024-01-25T00:07:18;39.35;;;16.08;;
85295;SDS011;75700;43.958;2.882;2024-01-25T00:09:44;52.78;;;21.02;;
85295;SDS011;75700;43.958;2.882;2024-01-25T00:12:10;38.72;;;17.55;;
85295;SDS011;75700;43.958;2.882;2024-01-25T00:14:36;46.03;;;21.05;;
85295;SDS011;75700;43.958;2.882;2024-01-25T00:17:03;40.72;;;18.25;;
85295;SDS011;75700;43.958;2.882;2024-01-25T00:19:29;37.63;;;15.93;;
85295;SDS011;75700;43.958;2.882;2024-01-25T00:21:55;36.45;;;14.63;;
85295;SDS011;75700;43.958;2.882;2024-01-25T00:24:21;36.85;;;14.30;;
85295;SDS011;75700;43.958;2.882;2024-01-25T00:26:47;35.05;;;14.45;;
85295;SDS011;75700;43.958;2.882;2024-01-25T00:29:13;32.03;;;12.57;;
85295;SDS011;75700;43.958;2.882;2024-01-25T00:31:40;30.65;;;12.57;;
85295;SDS011;75700;43.958;2.882;2024-01-25T00:34:06;34.88;;;14.35;;
85295;SDS011;75700;43.958;2.882;2024-01-25T00:36:33;40.85;;;19.30;;
85295;SDS011;75700;43.958;2.882;2024-01-25T00:38:59;37.47;;;17.00;;
85295;SDS011;75700;43.958;2.882;2024-01-25T00:41:26;36.70;;;16.90;;
85295;SDS011;75700;43.958;2.882;2024-01-25T00:43:53;35.33;;;15.40;;
85295;SDS011;75700;43.958;2.882;2024-01-25T00:46:19;34.72;;;14.85;;
85295;SDS011;75700;43.958;2.882;2024-01-25T00:48:45;37.00;;;16.38;;
85295;SDS011;75700;43.958;2.882;2024-01-25T00:51:14;29.10;;;13.52;;
85295;SDS011;75700;43.958;2.882;2024-01-25T00:53:41;34.70;;;14.25;;
85295;SDS011;75700;43.958;2.882;2024-01-25T00:56:08;29.98;;;12.80;;
85295;SDS011;75700;43.958;2.882;2024-01-25T00:58:35;31.70;;;13.98;;
85295;SDS011;75700;43.958;2.882;2024-01-25T01:01:02;25.85;;;10.98;;
85295;SDS011;75700;43.958;2.882;2024-01-25T01:03:28;25.13;;;12.93;;
85295;SDS011;75700;43.958;2.882;2024-01-25T01:05:54;23.27;;;10.40;;
85295;SDS011;75700;43.958;2.882;2024-01-25T01:08:22;28.98;;;11.02;;
85295;SDS011;75700;43.958;2.882;2024-01-25T01:10:51;22.85;;;8.80;;
85295;SDS011;75700;43.958;2.882;2024-01-25T01:13:17;13.82;;;6.13;;
85295;SDS011;75700;43.958;2.882;2024-01-25T01:15:43;25.92;;;10.57;;
85295;SDS011;75700;43.958;2.882;2024-01-25T01:18:09;17.80;;;9.40;;
85295;SDS011;75700;43.958;2.882;2024-01-25T01:20:35;26.50;;;11.00;;
85295;SDS011;75700;43.958;2.882;2024-01-25T01:23:01;13.50;;;6.20;;
85295;SDS011;75700;43.958;2.882;2024-01-25T01:25:27;7.82;;;3.63;;
85295;SDS011;75700;43.958;2.882;2024-01-25T01:27:53;3.95;;;1.95;;
85295;SDS011;75700;43.958;2.882;2024-01-25T01:30:19;7.53;;;3.28;;
85295;SDS011;75700;43.958;2.882;2024-01-25T01:32:46;3.40;;;1.23;;
85295;SDS011;75700;43.958;2.882;2024-01-25T01:35:12;4.68;;;1.30;;
85295;SDS011;75700;43.958;2.882;2024-01-25T01:37:38;6.20;;;3.00;;
85295;SDS011;75700;43.958;2.882;2024-01-25T01:40:04;5.53;;;2.80;;
85295;SDS011;75700;43.958;2.882;2024-01-25T01:42:31;4.05;;;2.00;;
85295;SDS011;75700;43.958;2.882;2024-01-25T01:44:58;5.13;;;1.55;;
85295;SDS011;75700;43.958;2.882;2024-01-25T01:47:24;3.35;;;1.20;;
85295;SDS011;75700;43.958;2.882;2024-01-25T01:49:50;3.17;;;1.90;;
85295;SDS011;75700;43.958;2.882;2024-01-25T01:52:16;4.25;;;1.05;;
85295;SDS011;75700;43.958;2.882;2024-01-25T01:54:43;4.75;;;1.02;;
85295;SDS011;75700;43.958;2.882;2024-01-25T01:57:09;4.20;;;2.13;;
85295;SDS011;75700;43.958;2.882;2024-01-25T01:59:36;3.85;;;1.45;;
85295;SDS011;75700;43.958;2.882;2024-01-25T02:02:02;3.85;;;2.08;;
85295;SDS011;75700;43.958;2.882;2024-01-25T02:04:28;2.65;;;1.23;;
85295;SDS011;75700;43.958;2.882;2024-01-25T02:06:54;3.47;;;1.85;;
85295;SDS011;75700;43.958;2.882;2024-01-25T02:09:21;3.03;;;1.80;;
85295;SDS011;75700;43.958;2.882;2024-01-25T02:11:59;2.92;;;1.50;;
85295;SDS011;75700;43.958;2.882;2024-01-25T02:14:27;2.78;;;1.55;;
85295;SDS011;75700;43.958;2.882;2024-01-25T02:16:53;2.72;;;1.00;;
85295;SDS011;75700;43.958;2.882;2024-01-25T02:19:19;3.58;;;1.67;;
85295;SDS011;75700;43.958;2.882;2024-01-25T02:21:45;2.53;;;0.80;;
85295;SDS011;75700;43.958;2.882;2024-01-25T02:24:11;3.53;;;0.90;;
85295;SDS011;75700;43.958;2.882;2024-01-25T02:26:37;2.42;;;0.80;;
85295;SDS011;75700;43.958;2.882;2024-01-25T02:29:04;3.13;;;1.52;;
85295;SDS011;75700;43.958;2.882;2024-01-25T02:31:31;2.72;;;0.93;;
85295;SDS011;75700;43.958;2.882;2024-01-25T02:33:57;2.55;;;1.15;;
85295;SDS011;75700;43.958;2.882;2024-01-25T02:36:23;3.17;;;1.20;;
85295;SDS011;75700;43.958;2.882;2024-01-25T02:38:49;3.40;;;1.77;;
85295;SDS011;75700;43.958;2.882;2024-01-25T02:41:18;4.95;;;2.22;;
85295;SDS011;75700;43.958;2.882;2024-01-25T02:43:44;5.13;;;2.25;;
85295;SDS011;75700;43.958;2.882;2024-01-25T02:46:10;4.53;;;1.25;;
85295;SDS011;75700;43.958;2.882;2024-01-25T02:48:36;5.85;;;2.80;;
85295;SDS011;75700;43.958;2.882;2024-01-25T02:51:03;5.55;;;2.25;;
85295;SDS011;75700;43.958;2.882;2024-01-25T02:53:29;2.83;;;1.27;;
85295;SDS011;75700;43.958;2.882;2024-01-25T02:55:55;3.92;;;2.08;;
85295;SDS011;75700;43.958;2.882;2024-01-25T02:58:22;3.95;;;1.95;;
85295;SDS011;75700;43.958;2.882;2024-01-25T03:00:48;3.05;;;0.98;;
85295;SDS011;75700;43.958;2.882;2024-01-25T03:03:14;3.63;;;1.30;;
85295;SDS011;75700;43.958;2.882;2024-01-25T03:05:40;3.53;;;1.85;;
85295;SDS011;75700;43.958;2.882;2024-01-25T03:08:06;3.83;;;1.35;;
85295;SDS011;75700;43.958;2.882;2024-01-25T03:10:32;3.35;;;1.30;;
85295;SDS011;75700;43.958;2.882;2024-01-25T03:12:58;3.03;;;1.10;;
85295;SDS011;75700;43.958;2.882;2024-01-25T03:15:24;4.60;;;2.30;;
85295;SDS011;75700;43.958;2.882;2024-01-25T03:17:50;4.25;;;2.35;;
85295;SDS011;75700;43.958;2.882;2024-01-25T03:20:16;5.72;;;2.60;;
85295;SDS011;75700;43.958;2.882;2024-01-25T03:22:42;3.40;;;2.17;;
85295;SDS011;75700;43.958;2.882;2024-01-25T03:25:09;16.23;;;2.00;;
85295;SDS011;75700;43.958;2.882;2024-01-25T03:27:36;4.68;;;1.83;;
85295;SDS011;75700;43.958;2.882;2024-01-25T03:30:02;3.92;;;2.42;;
85295;SDS011;75700;43.958;2.882;2024-01-25T03:32:30;17.77;;;1.52;;
85295;SDS011;75700;43.958;2.882;2024-01-25T03:34:56;3.78;;;1.85;;
85295;SDS011;75700;43.958;2.882;2024-01-25T03:37:22;4.10;;;1.20;;
85295;SDS011;75700;43.958;2.882;2024-01-25T03:39:48;7.03;;;2.35;;
85295;SDS011;75700;43.958;2.882;2024-01-25T03:42:14;5.13;;;2.15;;
85295;SDS011;75700;43.958;2.882;2024-01-25T03:44:40;5.38;;;2.70;;
85295;SDS011;75700;43.958;2.882;2024-01-25T03:47:10;6.07;;;2.35;;
85295;SDS011;75700;43.958;2.882;2024-01-25T03:49:36;4.78;;;2.03;;
85295;SDS011;75700;43.958;2.882;2024-01-25T03:52:03;5.55;;;2.20;;
85295;SDS011;75700;43.958;2.882;2024-01-25T03:54:30;6.57;;;3.10;;
85295;SDS011;75700;43.958;2.882;2024-01-25T03:56:56;5.43;;;2.38;;
85295;SDS011;75700;43.958;2.882;2024-01-25T03:59:22;7.05;;;2.47;;
85295;SDS011;75700;43.958;2.882;2024-01-25T04:01:48;4.43;;;1.80;;
85295;SDS011;75700;43.958;2.882;2024-01-25T04:04:14;6.25;;;2.72;;
85295;SDS011;75700;43.958;2.882;2024-01-25T04:06:41;5.45;;;3.15;;
85295;SDS011;75700;43.958;2.882;2024-01-25T04:09:08;4.47;;;1.58;;
85295;SDS011;75700;43.958;2.882;2024-01-25T04:11:35;4.05;;;2.03;;
85295;SDS011;75700;43.958;2.882;2024-01-25T04:14:02;2.65;;;1.10;;
85295;SDS011;75700;43.958;2.882;2024-01-25T04:16:28;2.65;;;0.77;;
85295;SDS011;75700;43.958;2.882;2024-01-25T04:18:54;2.17;;;0.88;;
85295;SDS011;75700;43.958;2.882;2024-01-25T04:21:20;2.83;;;0.95;;
85295;SDS011;75700;43.958;2.882;2024-01-25T04:23:46;4.53;;;1.73;;
85295;SDS011;75700;43.958;2.882;2024-01-25T04:26:12;3.00;;;1.05;;
85295;SDS011;75700;43.958;2.882;2024-01-25T04:28:38;2.83;;;1.45;;
85295;SDS011;75700;43.958;2.882;2024-01-25T04:31:04;3.00;;;1.67;;
85295;SDS011;75700;43.958;2.882;2024-01-25T04:33:30;3.33;;;1.90;;
85295;SDS011;75700;43.958;2.882;2024-01-25T04:35:56;3.35;;;1.00;;
85295;SDS011;75700;43.958;2.882;2024-01-25T04:38:22;3.47;;;1.48;;
85295;SDS011;75700;43.958;2.882;2024-01-25T04:40:48;2.67;;;0.90;;
85295;SDS011;75700;43.958;2.882;2024-01-25T04:43:15;2.80;;;1.20;;
85295;SDS011;75700;43.958;2.882;2024-01-25T04:45:41;3.08;;;0.73;;
85295;SDS011;75700;43.958;2.882;2024-01-25T04:48:07;2.92;;;1.50;;
85295;SDS011;75700;43.958;2.882;2024-01-25T04:50:33;5.20;;;1.95;;
85295;SDS011;75700;43.958;2.882;2024-01-25T04:53:01;3.72;;;1.80;;
85295;SDS011;75700;43.958;2.882;2024-01-25T04:55:27;2.38;;;0.82;;
85295;SDS011;75700;43.958;2.882;2024-01-25T04:57:53;3.38;;;1.20;;
85295;SDS011;75700;43.958;2.882;2024-01-25T05:00:21;4.50;;;1.73;;
85295;SDS011;75700;43.958;2.882;2024-01-25T05:02:47;2.75;;;1.23;;
85295;SDS011;75700;43.958;2.882;2024-01-25T05:05:14;2.88;;;1.13;;
85295;SDS011;75700;43.958;2.882;2024-01-25T05:07:40;3.20;;;0.98;;
85295;SDS011;75700;43.958;2.882;2024-01-25T05:10:07;10.02;;;1.65;;
85295;SDS011;75700;43.958;2.882;2024-01-25T05:12:33;11.20;;;2.13;;
85295;SDS011;75700;43.958;2.882;2024-01-25T05:14:59;12.02;;;2.55;;
85295;SDS011;75700;43.958;2.882;2024-01-25T05:17:25;7.30;;;2.05;;
85295;SDS011;75700;43.958;2.882;2024-01-25T05:19:51;12.23;;;2.38;;
85295;SDS011;75700;43.958;2.882;2024-01-25T05:22:17;10.07;;;2.00;;
85295;SDS011;75700;43.958;2.882;2024-01-25T05:24:43;8.70;;;3.17;;
85295;SDS011;75700;43.958;2.882;2024-01-25T05:27:11;6.72;;;1.63;;
85295;SDS011;75700;43.958;2.882;2024-01-25T05:29:37;10.50;;;2.55;;
85295;SDS011;75700;43.958;2.882;2024-01-25T05:32:04;11.45;;;2.42;;
85295;SDS011;75700;43.958;2.882;2024-01-25T05:34:30;7.07;;;2.10;;
85295;SDS011;75700;43.958;2.882;2024-01-25T05:36:56;48.65;;;4.13;;
85295;SDS011;75700;43.958;2.882;2024-01-25T05:39:22;26.33;;;5.15;;
85295;SDS011;75700;43.958;2.882;2024-01-25T05:41:48;14.27;;;2.70;;
85295;SDS011;75700;43.958;2.882;2024-01-25T05:44:14;10.45;;;1.80;;
85295;SDS011;75700;43.958;2.882;2024-01-25T05:46:40;10.30;;;2.35;;
85295;SDS011;75700;43.958;2.882;2024-01-25T05:49:06;8.98;;;2.92;;
85295;SDS011;75700;43.958;2.882;2024-01-25T05:51:32;6.93;;;2.08;;
85295;SDS011;75700;43.958;2.882;2024-01-25T05:53:58;7.18;;;2.90;;
85295;SDS011;75700;43.958;2.882;2024-01-25T05:56:24;5.13;;;2.35;;
85295;SDS011;75700;43.958;2.882;2024-01-25T05:58:51;6.45;;;3.10;;
85295;SDS011;75700;43.958;2.882;2024-01-25T06:01:17;6.78;;;2.90;;
85295;SDS011;75700;43.958;2.882;2024-01-25T06:03:44;6.10;;;2.20;;
85295;SDS011;75700;43.958;2.882;2024-01-25T06:06:10;1.98;;;0.68;;
85295;SDS011;75700;43.958;2.882;2024-01-25T06:08:36;2.28;;;0.70;;
85295;SDS011;75700;43.958;2.882;2024-01-25T06:11:03;3.30;;;0.95;;
85295;SDS011;75700;43.958;2.882;2024-01-25T06:13:29;2.42;;;0.70;;
85295;SDS011;75700;43.958;2.882;2024-01-25T06:15:57;2.72;;;1.52;;
85295;SDS011;75700;43.958;2.882;2024-01-25T06:18:23;3.15;;;1.05;;
85295;SDS011;75700;43.958;2.882;2024-01-25T06:20:49;3.13;;;1.52;;
85295;SDS011;75700;43.958;2.882;2024-01-25T06:23:15;3.47;;;1.85;;
85295;SDS011;75700;43.958;2.882;2024-01-25T06:25:41;3.45;;;1.10;;
85295;SDS011;75700;43.958;2.882;2024-01-25T06:28:08;3.58;;;1.42;;
85295;SDS011;75700;43.958;2.882;2024-01-25T06:30:34;2.95;;;1.20;;
85295;SDS011;75700;43.958;2.882;2024-01-25T06:33:00;2.30;;;0.73;;
85295;SDS011;75700;43.958;2.882;2024-01-25T06:35:26;3.33;;;1.25;;
85295;SDS011;75700;43.958;2.882;2024-01-25T06:37:52;4.20;;;1.63;;
85295;SDS011;75700;43.958;2.882;2024-01-25T06:40:18;8.45;;;2.92;;
85295;SDS011;75700;43.958;2.882;2024-01-25T06:42:44;10.48;;;4.05;;
85295;SDS011;75700;43.958;2.882;2024-01-25T06:45:11;11.73;;;4.72;;
85295;SDS011;75700;43.958;2.882;2024-01-25T06:47:37;11.93;;;4.15;;
85295;SDS011;75700;43.958;2.882;2024-01-25T06:50:03;11.45;;;5.07;;
85295;SDS011;75700;43.958;2.882;2024-01-25T06:52:30;9.93;;;4.75;;
85295;SDS011;75700;43.958;2.882;2024-01-25T06:54:56;8.35;;;4.70;;
85295;SDS011;75700;43.958;2.882;2024-01-25T06:57:22;8.70;;;3.03;;
85295;SDS011;75700;43.958;2.882;2024-01-25T06:59:49;6.30;;;2.75;;
85295;SDS011;75700;43.958;2.882;2024-01-25T07:02:15;6.47;;;3.55;;
85295;SDS011;75700;43.958;2.882;2024-01-25T07:04:41;7.72;;;2.70;;
85295;SDS011;75700;43.958;2.882;2024-01-25T07:07:07;8.13;;;2.97;;
85295;SDS011;75700;43.958;2.882;2024-01-25T07:09:33;9.88;;;4.90;;
85295;SDS011;75700;43.958;2.882;2024-01-25T07:11:59;10.30;;;5.30;;
85295;SDS011;75700;43.958;2.882;2024-01-25T07:14:25;8.38;;;4.03;;
85295;SDS011;75700;43.958;2.882;2024-01-25T07:16:51;5.43;;;1.95;;
85295;SDS011;75700;43.958;2.882;2024-01-25T07:19:17;6.90;;;2.58;;
85295;SDS011;75700;43.958;2.882;2024-01-25T07:21:43;7.78;;;3.03;;
85295;SDS011;75700;43.958;2.882;2024-01-25T07:24:11;8.13;;;2.70;;
85295;SDS011;75700;43.958;2.882;2024-01-25T07:26:37;9.63;;;4.43;;
85295;SDS011;75700;43.958;2.882;2024-01-25T07:29:03;6.38;;;3.05;;
85295;SDS011;75700;43.958;2.882;2024-01-25T07:31:29;5.03;;;2.88;;
85295;SDS011;75700;43.958;2.882;2024-01-25T07:33:55;6.50;;;2.83;;
85295;SDS011;75700;43.958;2.882;2024-01-25T07:36:21;53.17;;;4.30;;
85295;SDS011;75700;43.958;2.882;2024-01-25T07:38:47;4.25;;;2.45;;
85295;SDS011;75700;43.958;2.882;2024-01-25T07:41:15;3.75;;;1.33;;
85295;SDS011;75700;43.958;2.882;2024-01-25T07:43:41;3.97;;;2.28;;
85295;SDS011;75700;43.958;2.882;2024-01-25T07:46:09;5.30;;;3.35;;
85295;SDS011;75700;43.958;2.882;2024-01-25T07:48:36;5.72;;;2.88;;
85295;SDS011;75700;43.958;2.882;2024-01-25T07:51:02;6.10;;;2.60;;
85295;SDS011;75700;43.958;2.882;2024-01-25T07:53:29;8.65;;;3.83;;
85295;SDS011;75700;43.958;2.882;2024-01-25T07:55:55;13.63;;;3.22;;
85295;SDS011;75700;43.958;2.882;2024-01-25T07:58:21;11.75;;;2.58;;
85295;SDS011;75700;43.958;2.882;2024-01-25T08:00:47;29.80;;;3.95;;
85295;SDS011;75700;43.958;2.882;2024-01-25T08:03:14;10.57;;;3.63;;
85295;SDS011;75700;43.958;2.882;2024-01-25T08:05:40;41.45;;;4.38;;
85295;SDS011;75700;43.958;2.882;2024-01-25T08:08:06;17.35;;;4.45;;
85295;SDS011;75700;43.958;2.882;2024-01-25T08:10:33;11.35;;;5.32;;
85295;SDS011;75700;43.958;2.882;2024-01-25T08:12:59;11.63;;;4.75;;
85295;SDS011;75700;43.958;2.882;2024-01-25T08:15:25;9.68;;;4.65;;
85295;SDS011;75700;43.958;2.882;2024-01-25T08:17:51;11.20;;;4.32;;
85295;SDS011;75700;43.958;2.882;2024-01-25T08:20:17;11.13;;;5.53;;
85295;SDS011;75700;43.958;2.882;2024-01-25T08:22:46;9.90;;;4.25;;
85295;SDS011;75700;43.958;2.882;2024-01-25T08:25:12;11.63;;;5.10;;
85295;SDS011;75700;43.958;2.882;2024-01-25T08:27:39;21.60;;;9.57;;
85295;SDS011;75700;43.958;2.882;2024-01-25T08:30:05;33.78;;;14.00;;
85295;SDS011;75700;43.958;2.882;2024-01-25T08:32:32;19.35;;;9.13;;
85295;SDS011;75700;43.958;2.882;2024-01-25T08:34:58;10.73;;;5.10;;
85295;SDS011;75700;43.958;2.882;2024-01-25T08:37:24;18.25;;;8.00;;
85295;SDS011;75700;43.958;2.882;2024-01-25T08:39:50;12.40;;;6.20;;
85295;SDS011;75700;43.958;2.882;2024-01-25T08:42:17;13.90;;;6.72;;
85295;SDS011;75700;43.958;2.882;2024-01-25T08:44:43;17.52;;;8.40;;
85295;SDS011;75700;43.958;2.882;2024-01-25T08:47:17;9.05;;;4.82;;
85295;SDS011;75700;43.958;2.882;2024-01-25T08:49:43;9.15;;;5.13;;
85295;SDS011;75700;43.958;2.882;2024-01-25T08:52:10;8.75;;;3.80;;
85295;SDS011;75700;43.958;2.882;2024-01-25T08:54:36;11.40;;;5.47;;
85295;SDS011;75700;43.958;2.882;2024-01-25T08:57:03;9.45;;;4.97;;
85295;SDS011;75700;43.958;2.882;2024-01-25T08:59:30;11.85;;;4.95;;
85295;SDS011;75700;43.958;2.882;2024-01-25T09:01:58;14.63;;;6.18;;
85295;SDS011;75700;43.958;2.882;2024-01-25T09:04:24;12.65;;;6.32;;
85295;SDS011;75700;43.958;2.882;2024-01-25T09:06:50;13.45;;;6.85;;
85295;SDS011;75700;43.958;2.882;2024-01-25T09:09:16;14.05;;;8.10;;
85295;SDS011;75700;43.958;2.882;2024-01-25T09:11:42;14.77;;;8.65;;
85295;SDS011;75700;43.958;2.882;2024-01-25T09:14:08;13.95;;;6.95;;
85295;SDS011;75700;43.958;2.882;2024-01-25T09:16:35;15.93;;;5.93;;
85295;SDS011;75700;43.958;2.882;2024-01-25T09:19:02;15.77;;;8.43;;
85295;SDS011;75700;43.958;2.882;2024-01-25T09:21:29;14.98;;;7.30;;
85295;SDS011;75700;43.958;2.882;2024-01-25T09:23:55;18.17;;;8.35;;
85295;SDS011;75700;43.958;2.882;2024-01-25T09:26:21;21.23;;;8.20;;
85295;SDS011;75700;43.958;2.882;2024-01-25T09:28:47;26.70;;;9.93;;
85295;SDS011;75700;43.958;2.882;2024-01-25T09:31:13;20.23;;;9.43;;
85295;SDS011;75700;43.958;2.882;2024-01-25T09:33:39;16.10;;;7.45;;
85295;SDS011;75700;43.958;2.882;2024-01-25T09:36:05;14.02;;;6.80;;
85295;SDS011;75700;43.958;2.882;2024-01-25T09:38:32;11.65;;;7.40;;
85295;SDS011;75700;43.958;2.882;2024-01-25T09:40:58;13.85;;;5.70;;
85295;SDS011;75700;43.958;2.882;2024-01-25T09:43:26;10.25;;;4.43;;
85295;SDS011;75700;43.958;2.882;2024-01-25T09:45:53;7.90;;;3.15;;
85295;SDS011;75700;43.958;2.882;2024-01-25T09:48:20;7.15;;;4.15;;
85295;SDS011;75700;43.958;2.882;2024-01-25T09:50:47;5.30;;;2.42;;
85295;SDS011;75700;43.958;2.882;2024-01-25T09:53:21;6.68;;;3.83;;
85295;SDS011;75700;43.958;2.882;2024-01-25T09:55:58;6.72;;;3.80;;
85295;SDS011;75700;43.958;2.882;2024-01-25T09:58:31;16.52;;;4.25;;
85295;SDS011;75700;43.958;2.882;2024-01-25T10:01:02;12.35;;;5.10;;
85295;SDS011;75700;43.958;2.882;2024-01-25T10:03:28;10.63;;;5.38;;
85295;SDS011;75700;43.958;2.882;2024-01-25T10:05:55;9.43;;;4.13;;
85295;SDS011;75700;43.958;2.882;2024-01-25T10:08:22;12.80;;;5.13;;
85295;SDS011;75700;43.958;2.882;2024-01-25T10:10:49;17.95;;;4.75;;
85295;SDS011;75700;43.958;2.882;2024-01-25T10:13:16;16.10;;;5.55;;
85295;SDS011;75700;43.958;2.882;2024-01-25T10:15:43;7.30;;;3.40;;
85295;SDS011;75700;43.958;2.882;2024-01-25T10:18:10;10.90;;;4.60;;
85295;SDS011;75700;43.958;2.882;2024-01-25T10:20:38;8.38;;;4.10;;
85295;SDS011;75700;43.958;2.882;2024-01-25T10:23:06;10.85;;;4.20;;
85295;SDS011;75700;43.958;2.882;2024-01-25T10:25:34;7.45;;;4.32;;
85295;SDS011;75700;43.958;2.882;2024-01-25T10:30:29;7.32;;;3.55;;
85295;SDS011;75700;43.958;2.882;2024-01-25T10:32:58;7.15;;;2.97;;
85295;SDS011;75700;43.958;2.882;2024-01-25T10:35:25;6.55;;;3.92;;
85295;SDS011;75700;43.958;2.882;2024-01-25T10:37:52;8.90;;;3.85;;
85295;SDS011;75700;43.958;2.882;2024-01-25T10:40:18;6.55;;;2.78;;
85295;SDS011;75700;43.958;2.882;2024-01-25T10:42:45;8.07;;;3.08;;
85295;SDS011;75700;43.958;2.882;2024-01-25T10:45:12;6.30;;;2.75;;
85295;SDS011;75700;43.958;2.882;2024-01-25T10:47:38;9.50;;;3.95;;
85295;SDS011;75700;43.958;2.882;2024-01-25T10:50:07;7.60;;;3.42;;
85295;SDS011;75700;43.958;2.882;2024-01-25T10:52:34;7.00;;;3.30;;
85295;SDS011;75700;43.958;2.882;2024-01-25T10:55:01;7.65;;;4.22;;
85295;SDS011;75700;43.958;2.882;2024-01-25T10:57:35;7.13;;;3.15;;
85295;SDS011;75700;43.958;2.882;2024-01-25T11:00:05;6.90;;;4.00;;
85295;SDS011;75700;43.958;2.882;2024-01-25T11:02:34;5.60;;;2.40;;
85295;SDS011;75700;43.958;2.882;2024-01-25T11:05:00;7.78;;;2.22;;
85295;SDS011;75700;43.958;2.882;2024-01-25T11:07:28;5.00;;;1.73;;
85295;SDS011;75700;43.958;2.882;2024-01-25T11:09:54;4.85;;;2.25;;
85295;SDS011;75700;43.958;2.882;2024-01-25T11:12:21;4.78;;;1.90;;
85295;SDS011;75700;43.958;2.882;2024-01-25T11:14:54;5.30;;;2.42;;
85295;SDS011;75700;43.958;2.882;2024-01-25T11:17:22;4.30;;;1.92;;
85295;SDS011;75700;43.958;2.882;2024-01-25T11:19:49;6.07;;;2.13;;
85295;SDS011;75700;43.958;2.882;2024-01-25T11:22:16;3.72;;;2.33;;
85295;SDS011;75700;43.958;2.882;2024-01-25T11:24:43;6.97;;;1.20;;
85295;SDS011;75700;43.958;2.882;2024-01-25T11:27:10;5.85;;;2.60;;
85295;SDS011;75700;43.958;2.882;2024-01-25T11:29:38;3.90;;;1.77;;
85295;SDS011;75700;43.958;2.882;2024-01-25T11:32:05;4.07;;;1.52;;
85295;SDS011;75700;43.958;2.882;2024-01-25T11:34:31;4.03;;;2.38;;
85295;SDS011;75700;43.958;2.882;2024-01-25T11:36:57;4.60;;;2.38;;
85295;SDS011;75700;43.958;2.882;2024-01-25T11:39:23;3.85;;;1.33;;
85295;SDS011;75700;43.958;2.882;2024-01-25T11:41:50;5.55;;;1.65;;
85295;SDS011;75700;43.958;2.882;2024-01-25T11:44:17;3.20;;;1.55;;
85295;SDS011;75700;43.958;2.882;2024-01-25T11:46:43;4.00;;;1.17;;
85295;SDS011;75700;43.958;2.882;2024-01-25T11:49:09;2.95;;;1.25;;
85295;SDS011;75700;43.958;2.882;2024-01-25T11:51:35;3.95;;;2.47;;
85295;SDS011;75700;43.958;2.882;2024-01-25T11:54:02;3.90;;;2.45;;
85295;SDS011;75700;43.958;2.882;2024-01-25T11:56:31;3.70;;;1.65;;
85295;SDS011;75700;43.958;2.882;2024-01-25T11:58:59;3.95;;;2.25;;
85295;SDS011;75700;43.958;2.882;2024-01-25T12:01:25;4.35;;;2.17;;
85295;SDS011;75700;43.958;2.882;2024-01-25T12:03:51;3.47;;;2.33;;
85295;SDS011;75700;43.958;2.882;2024-01-25T12:06:17;3.33;;;1.48;;
85295;SDS011;75700;43.958;2.882;2024-01-25T12:08:44;3.83;;;2.22;;
85295;SDS011;75700;43.958;2.882;2024-01-25T12:11:11;5.22;;;1.70;;
85295;SDS011;75700;43.958;2.882;2024-01-25T12:13:39;3.85;;;1.60;;
85295;SDS011;75700;43.958;2.882;2024-01-25T12:16:07;2.95;;;1.02;;
85295;SDS011;75700;43.958;2.882;2024-01-25T12:18:34;3.25;;;1.55;;
85295;SDS011;75700;43.958;2.882;2024-01-25T12:21:01;3.63;;;1.27;;
85295;SDS011;75700;43.958;2.882;2024-01-25T12:23:30;2.78;;;1.23;;
85295;SDS011;75700;43.958;2.882;2024-01-25T12:26:00;3.65;;;1.40;;
85295;SDS011;75700;43.958;2.882;2024-01-25T12:28:27;3.13;;;1.70;;
85295;SDS011;75700;43.958;2.882;2024-01-25T12:30:54;5.32;;;2.67;;
85295;SDS011;75700;43.958;2.882;2024-01-25T12:33:21;3.80;;;2.38;;
85295;SDS011;75700;43.958;2.882;2024-01-25T12:35:47;3.08;;;1.42;;
85295;SDS011;75700;43.958;2.882;2024-01-25T12:38:13;7.35;;;2.75;;
85295;SDS011;75700;43.958;2.882;2024-01-25T12:40:40;5.38;;;2.00;;
85295;SDS011;75700;43.958;2.882;2024-01-25T12:43:07;4.10;;;1.73;;
85295;SDS011;75700;43.958;2.882;2024-01-25T12:45:33;3.63;;;1.80;;
85295;SDS011;75700;43.958;2.882;2024-01-25T12:47:59;3.55;;;1.60;;
85295;SDS011;75700;43.958;2.882;2024-01-25T12:50:28;4.10;;;2.00;;
85295;SDS011;75700;43.958;2.882;2024-01-25T12:52:54;4.65;;;2.10;;
85295;SDS011;75700;43.958;2.882;2024-01-25T12:55:20;4.72;;;3.00;;
85295;SDS011;75700;43.958;2.882;2024-01-25T12:57:46;6.78;;;2.65;;
85295;SDS011;75700;43.958;2.882;2024-01-25T13:00:12;3.60;;;1.70;;
85295;SDS011;75700;43.958;2.882;2024-01-25T13:02:39;4.00;;;1.92;;
85295;SDS011;75700;43.958;2.882;2024-01-25T13:05:05;5.72;;;2.45;;
85295;SDS011;75700;43.958;2.882;2024-01-25T13:07:31;4.72;;;2.10;;
85295;SDS011;75700;43.958;2.882;2024-01-25T13:09:58;4.68;;;2.67;;
85295;SDS011;75700;43.958;2.882;2024-01-25T13:12:24;5.57;;;2.70;;
85295;SDS011;75700;43.958;2.882;2024-01-25T13:14:50;5.25;;;2.78;;
85295;SDS011;75700;43.958;2.882;2024-01-25T13:17:16;6.05;;;2.03;;
85295;SDS011;75700;43.958;2.882;2024-01-25T13:19:43;4.00;;;2.60;;
85295;SDS011;75700;43.958;2.882;2024-01-25T13:22:09;4.30;;;1.60;;
85295;SDS011;75700;43.958;2.882;2024-01-25T13:24:35;4.32;;;2.80;;
85295;SDS011;75700;43.958;2.882;2024-01-25T13:27:01;4.95;;;2.97;;
85295;SDS011;75700;43.958;2.882;2024-01-25T13:29:27;4.38;;;1.70;;
85295;SDS011;75700;43.958;2.882;2024-01-25T13:31:53;5.53;;;2.88;;
85295;SDS011;75700;43.958;2.882;2024-01-25T13:34:19;5.35;;;1.67;;
85295;SDS011;75700;43.958;2.882;2024-01-25T13:36:45;4.68;;;1.92;;
85295;SDS011;75700;43.958;2.882;2024-01-25T13:39:11;4.72;;;2.55;;
85295;SDS011;75700;43.958;2.882;2024-01-25T13:41:37;5.55;;;3.22;;
85295;SDS011;75700;43.958;2.882;2024-01-25T13:44:03;4.85;;;1.98;;
85295;SDS011;75700;43.958;2.882;2024-01-25T13:46:29;4.97;;;1.60;;
85295;SDS011;75700;43.958;2.882;2024-01-25T13:48:55;4.70;;;1.67;;
85295;SDS011;75700;43.958;2.882;2024-01-25T13:51:22;6.78;;;2.47;;
85295;SDS011;75700;43.958;2.882;2024-01-25T13:53:48;7.88;;;2.95;;
85295;SDS011;75700;43.958;2.882;2024-01-25T13:56:14;7.90;;;3.17;;
85295;SDS011;75700;43.958;2.882;2024-01-25T13:58:41;4.00;;;2.03;;
85295;SDS011;75700;43.958;2.882;2024-01-25T14:01:07;6.25;;;1.85;;
85295;SDS011;75700;43.958;2.882;2024-01-25T14:03:34;5.80;;;1.83;;
85295;SDS011;75700;43.958;2.882;2024-01-25T14:06:00;3.80;;;1.98;;
85295;SDS011;75700;43.958;2.882;2024-01-25T14:08:30;5.40;;;2.58;;
85295;SDS011;75700;43.958;2.882;2024-01-25T14:10:57;3.40;;;1.90;;
85295;SDS011;75700;43.958;2.882;2024-01-25T14:13:23;2.72;;;0.85;;
85295;SDS011;75700;43.958;2.882;2024-01-25T14:15:49;4.40;;;1.30;;
85295;SDS011;75700;43.958;2.882;2024-01-25T14:18:15;2.42;;;1.00;;
85295;SDS011;75700;43.958;2.882;2024-01-25T14:20:41;3.75;;;2.05;;
85295;SDS011;75700;43.958;2.882;2024-01-25T14:23:08;4.55;;;1.90;;
85295;SDS011;75700;43.958;2.882;2024-01-25T14:25:34;4.15;;;1.00;;
85295;SDS011;75700;43.958;2.882;2024-01-25T14:28:00;4.43;;;1.70;;
85295;SDS011;75700;43.958;2.882;2024-01-25T14:30:27;2.83;;;0.90;;
85295;SDS011;75700;43.958;2.882;2024-01-25T14:32:54;3.33;;;0.93;;
85295;SDS011;75700;43.958;2.882;2024-01-25T14:35:21;2.95;;;1.55;;
85295;SDS011;75700;43.958;2.882;2024-01-25T14:37:54;3.00;;;1.70;;
85295;SDS011;75700;43.958;2.882;2024-01-25T14:40:20;2.95;;;0.90;;